createdAt,value
2023-09-17T00:32:19.619Z,8.30
2023-09-17T00:33:10.959Z,8.77
2023-09-17T00:33:38.723Z,9.07
2023-09-17T00:36:09.107Z,8.63
2023-09-17T00:39:00.384Z,9.25
2023-09-17T00:41:32.452Z,9.57
2023-09-17T00:44:11.870Z,9.05
2023-09-17T00:46:53.709Z,9.30
2023-09-17T00:49:23.516Z,9.40
2023-09-17T00:51:52.398Z,9.35
2023-09-17T00:54:27.012Z,9.73
2023-09-17T00:56:58.036Z,9.52
2023-09-17T00:59:26.919Z,10.07
2023-09-17T01:02:03.501Z,10.48
2023-09-17T01:04:34.786Z,9.83
2023-09-17T01:07:08.555Z,10.23
2023-09-17T01:09:39.787Z,9.90
2023-09-17T01:12:08.411Z,10.40
2023-09-17T01:14:38.685Z,9.70
2023-09-17T01:17:09.764Z,9.68
2023-09-17T01:19:47.053Z,10.80
2023-09-17T01:22:28.018Z,10.18
2023-09-17T01:25:09.852Z,9.90
2023-09-17T01:27:50.816Z,9.65
2023-09-17T01:30:32.950Z,10.02
2023-09-17T01:33:14.863Z,10.15
2023-09-17T01:35:56.808Z,11.23
2023-09-17T01:38:35.428Z,9.77
2023-09-17T01:41:06.179Z,10.60
2023-09-17T01:43:37.264Z,10.27
2023-09-17T01:46:08.596Z,10.60
2023-09-17T01:48:38.923Z,10.10
2023-09-17T01:51:09.365Z,9.55
2023-09-17T01:53:59.633Z,9.90
2023-09-17T01:56:30.360Z,9.63
2023-09-17T01:58:58.763Z,9.75
2023-09-17T02:01:29.256Z,10.40
2023-09-17T02:04:00.149Z,10.05
2023-09-17T02:06:29.039Z,10.23
2023-09-17T02:08:57.710Z,9.27
2023-09-17T02:11:26.700Z,9.75
2023-09-17T02:13:56.516Z,9.85
2023-09-17T02:16:26.442Z,9.15
2023-09-17T02:18:57.247Z,9.65
2023-09-17T02:21:26.565Z,9.47
2023-09-17T02:23:56.688Z,9.52
2023-09-17T02:26:32.067Z,9.82
2023-09-17T02:29:01.333Z,8.70
2023-09-17T02:31:30.382Z,9.75
2023-09-17T02:34:00.117Z,9.63
2023-09-17T02:36:29.604Z,9.95
2023-09-17T02:39:18.542Z,9.45
2023-09-17T02:41:47.593Z,9.65
2023-09-17T02:44:25.264Z,9.45
2023-09-17T02:47:00.884Z,10.20
2023-09-17T02:49:29.848Z,9.77
2023-09-17T02:51:59.702Z,9.63
2023-09-17T02:54:29.331Z,9.23
2023-09-17T02:57:00.540Z,9.35
2023-09-17T02:59:38.759Z,10.18
2023-09-17T03:02:07.749Z,9.63
2023-09-17T03:04:43.758Z,9.88
2023-09-17T03:07:13.195Z,9.68
2023-09-17T03:09:42.237Z,8.90
2023-09-17T03:12:13.690Z,9.50
2023-09-17T03:14:43.183Z,10.27
2023-09-17T03:17:15.297Z,10.13
2023-09-17T03:19:45.688Z,10.48
2023-09-17T03:22:15.907Z,9.45
2023-09-17T03:25:04.481Z,10.07
2023-09-17T03:27:38.372Z,10.45
2023-09-17T03:30:13.625Z,10.30
2023-09-17T03:32:57.701Z,9.60
2023-09-17T03:35:34.586Z,9.88
2023-09-17T03:38:04.046Z,10.20
2023-09-17T03:40:34.994Z,10.40
2023-09-17T03:45:43.701Z,10.10
2023-09-17T03:48:13.755Z,11.02
2023-09-17T03:51:01.615Z,11.18
2023-09-17T03:53:31.824Z,10.30
2023-09-17T03:56:09.173Z,10.23
2023-09-17T03:58:40.369Z,9.88
2023-09-17T04:01:10.779Z,10.20
2023-09-17T04:03:39.633Z,10.35
2023-09-17T04:06:08.082Z,10.63
2023-09-17T04:08:36.879Z,9.98
2023-09-17T04:11:06.053Z,10.75
2023-09-17T04:13:34.847Z,11.68
2023-09-17T04:16:05.288Z,10.93
2023-09-17T04:18:34.162Z,10.90
2023-09-17T04:21:04.164Z,10.20
2023-09-17T04:24:24.390Z,10.80
2023-09-17T04:26:48.182Z,10.75
2023-09-17T04:29:24.500Z,10.77
2023-09-17T04:32:09.710Z,11.27
2023-09-17T04:35:00.404Z,11.63
2023-09-17T04:37:30.045Z,11.40
2023-09-17T04:40:02.136Z,12.35
2023-09-17T04:45:11.271Z,12.02
2023-09-17T04:47:41.505Z,11.38
2023-09-17T04:50:10.958Z,12.95
2023-09-17T04:52:39.574Z,12.20
2023-09-17T04:55:11.440Z,12.75
2023-09-17T04:58:02.959Z,12.00
2023-09-17T05:00:40.519Z,12.20
2023-09-17T05:03:13.578Z,12.20
2023-09-17T05:05:43.945Z,12.52
2023-09-17T05:08:12.881Z,12.77
2023-09-17T05:10:47.186Z,12.32
2023-09-17T05:13:15.794Z,12.82
2023-09-17T05:15:45.831Z,11.77
2023-09-17T05:18:14.382Z,12.45
2023-09-17T05:20:49.852Z,12.55
2023-09-17T05:23:19.306Z,12.35
2023-09-17T05:26:02.951Z,13.10
2023-09-17T05:28:54.217Z,13.38
2023-09-17T05:31:29.736Z,14.05
2023-09-17T05:34:10.747Z,12.93
2023-09-17T05:36:49.916Z,12.93
2023-09-17T05:39:30.173Z,13.02
2023-09-17T05:42:06.776Z,12.73
2023-09-17T05:45:01.833Z,13.18
2023-09-17T05:48:07.737Z,12.15
2023-09-17T05:50:44.122Z,12.93
2023-09-17T05:53:20.153Z,13.38
2023-09-17T05:55:55.962Z,12.23
2023-09-17T05:58:36.718Z,13.02
2023-09-17T06:01:10.121Z,13.00
2023-09-17T06:03:39.650Z,13.43
2023-09-17T06:06:12.307Z,13.43
2023-09-17T06:08:51.997Z,13.52
2023-09-17T06:11:23.124Z,13.30
2023-09-17T06:13:56.704Z,13.70
2023-09-17T06:16:36.464Z,13.38
2023-09-17T06:19:21.263Z,12.70
2023-09-17T06:22:05.083Z,13.48
2023-09-17T06:24:48.012Z,13.70
2023-09-17T06:27:45.206Z,13.43
2023-09-17T06:30:47.408Z,13.32
2023-09-17T06:37:35.006Z,12.88
2023-09-17T06:40:30.799Z,12.80
2023-09-17T06:44:03.788Z,13.25
2023-09-17T06:47:03.573Z,13.38
2023-09-17T06:49:57.099Z,13.25
2023-09-17T06:52:33.196Z,13.30
2023-09-17T06:55:57.093Z,13.25
2023-09-17T07:02:15.263Z,12.57
2023-09-17T07:04:59.948Z,12.60
2023-09-17T07:07:55.367Z,12.25
2023-09-17T07:11:51.954Z,12.60
2023-09-17T07:14:18.485Z,12.10
2023-09-17T07:14:43.813Z,12.02
2023-09-17T07:17:37.878Z,12.25
2023-09-17T07:25:01.850Z,12.43
2023-09-17T07:25:24.153Z,14.50
2023-09-17T07:34:09.111Z,12.73
2023-09-17T07:37:07.980Z,12.07
2023-09-17T07:39:37.147Z,12.38
2023-09-17T07:42:06.725Z,11.52
2023-09-17T07:44:51.138Z,12.10
2023-09-17T07:47:19.777Z,12.65
2023-09-17T07:49:49.788Z,11.88
2023-09-17T07:52:18.230Z,11.93
2023-09-17T07:54:47.350Z,12.07
2023-09-17T07:57:15.621Z,11.10
2023-09-17T08:00:02.799Z,11.13
2023-09-17T08:02:41.361Z,11.68
2023-09-17T08:05:10.991Z,12.15
2023-09-17T08:07:41.664Z,11.02
2023-09-17T08:10:11.153Z,10.75
2023-09-17T08:12:41.641Z,10.45
2023-09-17T08:15:11.757Z,10.75
2023-09-17T08:17:40.267Z,10.18
2023-09-17T08:20:16.352Z,9.90
2023-09-17T08:22:47.535Z,10.90
2023-09-17T08:25:16.934Z,9.73
2023-09-17T08:27:45.563Z,10.13
2023-09-17T08:30:15.267Z,10.45
2023-09-17T08:32:48.195Z,10.55
2023-09-17T08:35:22.858Z,10.65
2023-09-17T08:37:52.160Z,10.48
2023-09-17T08:40:25.464Z,11.02
2023-09-17T08:42:54.242Z,10.27
2023-09-17T08:45:23.557Z,10.70
2023-09-17T08:47:52.581Z,10.95
2023-09-17T08:50:22.140Z,11.05
2023-09-17T08:52:57.270Z,11.25
2023-09-17T08:55:35.329Z,10.13
2023-09-17T08:58:26.307Z,10.98
2023-09-17T09:01:00.308Z,9.80
2023-09-17T09:03:31.996Z,9.90
2023-09-17T09:06:02.686Z,9.60
2023-09-17T09:08:40.092Z,10.18
2023-09-17T09:11:09.848Z,9.77
2023-09-17T09:13:39.644Z,9.88
2023-09-17T09:16:08.769Z,10.43
2023-09-17T09:18:37.216Z,10.25
2023-09-17T09:21:11.185Z,10.13
2023-09-17T09:23:39.747Z,9.85
2023-09-17T09:26:08.974Z,10.57
2023-09-17T09:28:37.420Z,10.23
2023-09-17T09:31:06.167Z,9.88
2023-09-17T09:33:38.662Z,10.25
2023-09-17T09:36:07.517Z,9.60
2023-09-17T09:38:37.174Z,9.13
2023-09-17T09:41:06.836Z,9.93
2023-09-17T09:43:38.276Z,9.07
2023-09-17T09:46:10.144Z,10.02
2023-09-17T09:51:08.760Z,9.55
2023-09-17T09:53:37.476Z,9.38
2023-09-17T09:56:12.893Z,9.32
2023-09-17T09:58:41.495Z,8.75
2023-09-17T10:01:11.458Z,8.90
2023-09-17T10:03:40.790Z,8.57
2023-09-17T10:06:09.645Z,8.48
2023-09-17T10:08:39.521Z,7.63
2023-09-17T10:11:09.713Z,8.02
2023-09-17T10:13:44.543Z,8.07
2023-09-17T10:16:14.423Z,8.60
2023-09-17T10:18:44.927Z,8.85
2023-09-17T10:21:16.024Z,8.13
2023-09-17T10:23:45.514Z,7.27
2023-09-17T10:26:16.702Z,7.47
2023-09-17T10:28:47.330Z,8.70
2023-09-17T10:31:16.878Z,7.80
2023-09-17T10:33:49.270Z,7.88
2023-09-17T10:36:19.430Z,5.63
2023-09-17T10:38:48.207Z,4.40
2023-09-17T10:41:20.582Z,4.35
2023-09-17T10:43:52.670Z,4.70
2023-09-17T10:46:24.063Z,4.63
2023-09-17T10:48:54.980Z,5.15
2023-09-17T10:51:24.255Z,4.35
2023-09-17T10:53:53.043Z,5.55
2023-09-17T10:56:24.506Z,5.60
2023-09-17T10:58:54.044Z,6.30
2023-09-17T11:01:28.035Z,6.70
2023-09-17T11:04:04.789Z,6.22
2023-09-17T11:06:36.094Z,6.45
2023-09-17T11:09:06.102Z,6.63
2023-09-17T11:11:38.554Z,4.43
2023-09-17T11:14:07.030Z,4.90
2023-09-17T11:16:37.563Z,4.30
2023-09-17T11:19:14.943Z,4.50
2023-09-17T11:21:48.120Z,4.53
2023-09-17T11:24:19.257Z,4.38
2023-09-17T11:26:49.265Z,4.50
2023-09-17T11:29:20.645Z,5.30
2023-09-17T11:31:55.580Z,5.28
2023-09-17T11:34:24.284Z,5.97
2023-09-17T11:36:54.201Z,5.78
2023-09-17T11:39:23.709Z,6.35
2023-09-17T11:41:55.249Z,5.32
2023-09-17T11:44:24.567Z,5.15
2023-09-17T11:46:53.265Z,5.30
2023-09-17T11:49:23.731Z,5.15
2023-09-17T11:51:53.245Z,5.20
2023-09-17T11:54:24.377Z,5.72
2023-09-17T11:56:55.153Z,5.40
2023-09-17T11:59:28.509Z,5.43
2023-09-17T12:01:59.001Z,5.00
2023-09-17T12:04:37.487Z,4.65
2023-09-17T12:07:11.508Z,5.10
2023-09-17T12:09:47.957Z,5.28
2023-09-17T12:12:20.369Z,4.80
2023-09-17T12:14:52.717Z,5.38
2023-09-17T12:17:21.384Z,5.50
2023-09-17T12:20:18.342Z,5.53
2023-09-17T12:22:58.111Z,5.00
2023-09-17T12:25:29.763Z,5.97
2023-09-17T12:27:58.317Z,5.30
2023-09-17T12:30:27.601Z,5.03
2023-09-17T12:32:57.023Z,5.47
2023-09-17T12:35:25.669Z,5.43
2023-09-17T12:37:56.080Z,5.40
2023-09-17T12:40:24.732Z,5.82
2023-09-17T12:42:56.747Z,5.00
2023-09-17T12:45:39.575Z,5.10
2023-09-17T12:48:15.282Z,5.63
2023-09-17T12:50:44.624Z,5.35
2023-09-17T12:53:26.387Z,6.10
2023-09-17T12:55:59.439Z,5.63
2023-09-17T12:58:32.417Z,7.05
2023-09-17T13:01:15.019Z,6.65
2023-09-17T13:04:16.837Z,5.72
2023-09-17T13:06:55.149Z,5.63
2023-09-17T13:09:24.017Z,6.25
2023-09-17T13:11:57.202Z,6.28
2023-09-17T13:15:36.472Z,6.00
2023-09-17T13:18:15.489Z,6.70
2023-09-17T13:20:52.369Z,7.95
2023-09-17T13:23:41.933Z,6.20
2023-09-17T13:26:11.567Z,5.97
2023-09-17T13:28:41.395Z,5.63
2023-09-17T13:31:12.614Z,5.93
2023-09-17T13:33:41.633Z,5.72
2023-09-17T13:36:10.837Z,5.50
2023-09-17T13:38:43.525Z,7.30
2023-09-17T13:41:19.240Z,5.40
2023-09-17T13:43:48.253Z,9.75
2023-09-17T13:46:20.896Z,5.60
2023-09-17T13:48:51.481Z,6.38
2023-09-17T13:51:20.291Z,6.57
2023-09-17T13:53:49.004Z,8.45
2023-09-17T13:56:17.627Z,9.48
2023-09-17T13:58:46.321Z,12.07
2023-09-17T14:01:14.928Z,13.05
2023-09-17T14:05:50.328Z,7.00
2023-09-17T14:15:44.744Z,5.65
2023-09-17T14:23:10.546Z,6.63
2023-09-17T14:29:49.517Z,5.93
2023-09-17T14:31:39.984Z,5.80
2023-09-17T14:32:21.258Z,5.57
2023-09-17T14:39:12.528Z,5.93
2023-09-17T14:41:41.630Z,6.15
2023-09-17T14:44:17.853Z,6.43
2023-09-17T14:46:50.261Z,5.78
2023-09-17T14:49:20.801Z,7.82
2023-09-17T14:50:18.399Z,5.68
2023-09-17T14:51:49.470Z,7.55
2023-09-17T14:54:18.141Z,9.63
2023-09-17T14:56:51.152Z,19.48
2023-09-17T14:59:19.619Z,5.60
2023-09-17T15:01:59.637Z,5.45
2023-09-17T15:04:47.117Z,5.38
2023-09-17T15:07:22.493Z,5.95
2023-09-17T15:09:58.907Z,6.07
2023-09-17T15:12:40.982Z,6.20
2023-09-17T15:19:02.910Z,6.18
2023-09-17T15:21:31.732Z,9.85
2023-09-17T15:25:02.898Z,8.85
2023-09-17T15:27:38.494Z,9.02
2023-09-17T15:30:12.276Z,7.82
2023-09-17T15:33:09.444Z,7.88
2023-09-17T15:35:42.413Z,6.85
2023-09-17T15:41:59.108Z,6.22
2023-09-17T15:44:31.473Z,5.47
2023-09-17T15:47:07.322Z,6.43
2023-09-17T15:49:38.165Z,5.63
2023-09-17T15:52:08.534Z,5.53
2023-09-17T15:54:40.323Z,5.63
2023-09-17T15:57:23.009Z,6.18
2023-09-17T15:59:51.930Z,7.32
2023-09-17T16:02:21.394Z,7.65
2023-09-17T16:04:51.661Z,6.53
2023-09-17T16:07:23.379Z,6.65
2023-09-17T16:09:53.268Z,6.80
2023-09-17T16:12:22.719Z,7.25
2023-09-17T16:14:51.712Z,7.28
2023-09-17T16:17:20.076Z,6.65
2023-09-17T16:22:42.802Z,6.97
2023-09-17T16:25:14.438Z,6.55
2023-09-17T16:27:47.406Z,6.45
2023-09-17T16:30:16.582Z,6.47
2023-09-17T16:32:48.556Z,6.00
2023-09-17T16:35:18.702Z,6.95
2023-09-17T16:37:47.598Z,6.13
2023-09-17T16:40:16.288Z,7.70
2023-09-17T16:42:57.700Z,6.72
2023-09-17T16:45:33.300Z,7.38
2023-09-17T16:48:01.727Z,7.40
2023-09-17T16:50:32.757Z,8.20
2023-09-17T16:53:01.176Z,9.00
2023-09-17T16:55:39.271Z,7.55
2023-09-17T16:58:09.407Z,7.65
2023-09-17T17:00:48.237Z,8.48
2023-09-17T17:03:19.105Z,9.05
2023-09-17T17:05:51.542Z,8.00
2023-09-17T17:08:31.349Z,8.38
2023-09-17T17:11:27.416Z,7.82
2023-09-17T17:14:17.936Z,8.98
2023-09-17T17:16:50.410Z,10.88
2023-09-17T17:36:22.149Z,15.07
2023-09-17T17:49:00.333Z,19.00
2023-09-17T17:51:33.461Z,17.33
2023-09-17T17:54:07.613Z,16.73
2023-09-17T17:56:36.787Z,14.05
2023-09-17T17:59:08.717Z,14.15
2023-09-17T18:02:03.825Z,14.68
2023-09-17T18:04:32.525Z,15.88
2023-09-17T18:07:01.358Z,15.07
2023-09-17T18:09:31.162Z,16.98
2023-09-17T18:12:07.471Z,19.85
2023-09-17T18:14:51.458Z,18.50
2023-09-17T18:17:30.108Z,20.05
2023-09-17T20:37:33.855Z,17.52
2023-09-17T20:40:19.927Z,17.77
2023-09-17T20:43:11.768Z,16.27
2023-09-17T20:45:50.222Z,15.88
2023-09-17T20:48:34.854Z,18.25
2023-09-17T20:51:05.223Z,16.40
2023-09-17T20:53:38.853Z,16.80
2023-09-17T20:56:08.133Z,16.35
2023-09-17T20:58:36.969Z,16.80
2023-09-17T21:01:08.638Z,16.63
2023-09-17T21:03:37.512Z,17.60
2023-09-17T21:06:20.418Z,17.25
2023-09-17T21:09:28.861Z,17.30
2023-09-17T21:12:21.456Z,16.58
2023-09-17T21:14:50.768Z,16.20
2023-09-17T21:17:19.863Z,17.05
2023-09-17T21:19:48.325Z,17.55
2023-09-17T21:22:17.179Z,17.33
2023-09-17T21:24:46.236Z,17.25
2023-09-17T21:27:15.744Z,15.90
2023-09-17T21:29:45.098Z,15.68
2023-09-17T21:32:13.978Z,16.38
2023-09-17T21:34:43.482Z,17.60
2023-09-17T21:37:12.360Z,17.95
2023-09-17T21:39:40.751Z,18.00
2023-09-17T21:42:09.491Z,17.20
2023-09-17T21:44:37.951Z,17.70
2023-09-17T21:47:07.259Z,17.10
2023-09-17T21:49:35.825Z,17.48
2023-09-17T21:52:04.916Z,17.27
2023-09-17T21:54:33.347Z,16.83
2023-09-17T21:57:19.843Z,17.20
2023-09-17T21:59:48.701Z,16.48
2023-09-17T22:02:17.492Z,16.95
2023-09-17T22:04:46.126Z,16.70
2023-09-17T22:07:14.983Z,16.42
2023-09-17T22:09:46.138Z,17.10
2023-09-17T22:12:15.698Z,16.85
2023-09-17T22:14:44.132Z,16.67
2023-09-17T22:17:12.876Z,16.10
2023-09-17T22:19:42.281Z,15.55
2023-09-17T22:22:11.020Z,15.38
2023-09-17T22:24:39.461Z,16.35
2023-09-17T22:27:08.452Z,15.70
2023-09-17T22:29:37.248Z,16.60
2023-09-17T22:32:06.215Z,15.60
2023-09-17T22:34:35.243Z,16.90
2023-09-17T22:37:04.343Z,15.50
2023-09-17T22:39:33.080Z,15.73
2023-09-17T22:42:02.053Z,15.40
2023-09-17T22:44:30.519Z,15.55
2023-09-17T22:46:59.259Z,15.60
2023-09-17T22:49:30.881Z,16.38
2023-09-17T22:51:59.808Z,15.65
2023-09-17T22:54:28.282Z,14.73
2023-09-17T22:56:57.455Z,15.65
2023-09-17T22:59:26.553Z,15.57
2023-09-17T23:01:55.506Z,16.10
2023-09-17T23:04:24.135Z,15.43
2023-09-17T23:06:53.979Z,14.38
2023-09-17T23:09:22.520Z,13.65
2023-09-17T23:11:51.724Z,14.05
2023-09-17T23:14:20.653Z,13.82
2023-09-17T23:16:50.096Z,14.60
2023-09-17T23:19:19.237Z,14.90
2023-09-17T23:21:49.368Z,15.35
2023-09-17T23:24:18.791Z,15.20
2023-09-17T23:26:47.594Z,14.13
2023-09-17T23:29:17.288Z,14.13
2023-09-17T23:31:47.022Z,14.65
2023-09-17T23:34:18.289Z,14.60
2023-09-17T23:36:47.232Z,14.15
2023-09-17T23:39:17.102Z,14.07
2023-09-17T23:41:45.962Z,15.20
2023-09-17T23:44:14.560Z,14.13
2023-09-17T23:46:43.218Z,15.68
2023-09-17T23:49:11.999Z,14.60
2023-09-17T23:51:41.273Z,13.90
2023-09-17T23:54:09.793Z,14.93
2023-09-17T23:56:38.593Z,14.73
2023-09-17T23:59:07.061Z,14.85
